sensor_id;sensor_type;location;lat;lon;timestamp;P1;durP1;ratioP1;P2;durP2;ratioP2
17528;SDS011;8882;53.192;8.184;2022-10-23T07:02:44;8.80;;;5.53;;
17528;SDS011;8882;53.192;8.184;2022-10-23T07:05:09;6.50;;;4.80;;
17528;SDS011;8882;53.192;8.184;2022-10-23T07:07:35;5.77;;;3.93;;
17528;SDS011;8882;53.192;8.184;2022-10-23T07:10:00;6.90;;;4.53;;
17528;SDS011;8882;53.192;8.184;2022-10-23T07:12:26;6.93;;;4.43;;
17528;SDS011;8882;53.192;8.184;2022-10-23T07:14:52;7.97;;;4.90;;
17528;SDS011;8882;53.192;8.184;2022-10-23T07:17:18;8.37;;;5.07;;
17528;SDS011;8882;53.192;8.184;2022-10-23T07:19:44;8.20;;;4.53;;
17528;SDS011;8882;53.192;8.184;2022-10-23T07:22:11;8.00;;;5.33;;
17528;SDS011;8882;53.192;8.184;2022-10-23T07:24:36;7.10;;;4.77;;
17528;SDS011;8882;53.192;8.184;2022-10-23T07:27:03;7.13;;;4.87;;
17528;SDS011;8882;53.192;8.184;2022-10-23T07:29:28;10.60;;;5.20;;
17528;SDS011;8882;53.192;8.184;2022-10-23T07:31:54;8.03;;;4.90;;
17528;SDS011;8882;53.192;8.184;2022-10-23T07:34:21;7.23;;;4.77;;
17528;SDS011;8882;53.192;8.184;2022-10-23T07:36:46;10.20;;;5.37;;
17528;SDS011;8882;53.192;8.184;2022-10-23T07:39:12;7.73;;;4.90;;
17528;SDS011;8882;53.192;8.184;2022-10-23T07:41:38;8.57;;;5.03;;
17528;SDS011;8882;53.192;8.184;2022-10-23T07:44:03;10.13;;;5.60;;
17528;SDS011;8882;53.192;8.184;2022-10-23T07:46:29;7.53;;;5.40;;
17528;SDS011;8882;53.192;8.184;2022-10-23T07:48:55;6.67;;;5.13;;
17528;SDS011;8882;53.192;8.184;2022-10-23T07:51:20;10.87;;;5.67;;
17528;SDS011;8882;53.192;8.184;2022-10-23T07:53:46;7.67;;;4.70;;
17528;SDS011;8882;53.192;8.184;2022-10-23T07:56:15;9.73;;;5.03;;
17528;SDS011;8882;53.192;8.184;2022-10-23T07:58:50;10.33;;;5.90;;
17528;SDS011;8882;53.192;8.184;2022-10-23T08:01:19;9.77;;;5.27;;
17528;SDS011;8882;53.192;8.184;2022-10-23T08:03:49;7.27;;;4.80;;
17528;SDS011;8882;53.192;8.184;2022-10-23T08:06:15;6.47;;;5.13;;
17528;SDS011;8882;53.192;8.184;2022-10-23T08:08:40;6.63;;;4.67;;
17528;SDS011;8882;53.192;8.184;2022-10-23T08:11:06;7.73;;;4.57;;
17528;SDS011;8882;53.192;8.184;2022-10-23T08:13:31;8.30;;;4.80;;
17528;SDS011;8882;53.192;8.184;2022-10-23T08:15:57;9.90;;;5.40;;
17528;SDS011;8882;53.192;8.184;2022-10-23T08:18:23;10.13;;;5.30;;
17528;SDS011;8882;53.192;8.184;2022-10-23T08:20:48;9.43;;;5.37;;
17528;SDS011;8882;53.192;8.184;2022-10-23T08:23:16;8.77;;;5.30;;
17528;SDS011;8882;53.192;8.184;2022-10-23T08:25:43;8.37;;;6.07;;
17528;SDS011;8882;53.192;8.184;2022-10-23T08:28:09;12.47;;;5.93;;
17528;SDS011;8882;53.192;8.184;2022-10-23T08:30:35;11.17;;;5.73;;
17528;SDS011;8882;53.192;8.184;2022-10-23T08:33:05;7.50;;;5.20;;
17528;SDS011;8882;53.192;8.184;2022-10-23T08:35:34;8.53;;;5.67;;
17528;SDS011;8882;53.192;8.184;2022-10-23T08:38:03;10.67;;;5.63;;
17528;SDS011;8882;53.192;8.184;2022-10-23T08:40:29;9.33;;;5.73;;
17528;SDS011;8882;53.192;8.184;2022-10-23T08:45:43;9.43;;;6.03;;
17528;SDS011;8882;53.192;8.184;2022-10-23T08:48:32;7.33;;;5.17;;
17528;SDS011;8882;53.192;8.184;2022-10-23T08:51:07;9.43;;;5.40;;
17528;SDS011;8882;53.192;8.184;2022-10-23T08:53:55;10.70;;;5.63;;
17528;SDS011;8882;53.192;8.184;2022-10-23T08:56:26;8.00;;;5.00;;
17528;SDS011;8882;53.192;8.184;2022-10-23T08:58:58;8.77;;;5.80;;
17528;SDS011;8882;53.192;8.184;2022-10-23T09:01:42;9.63;;;5.20;;
17528;SDS011;8882;53.192;8.184;2022-10-23T09:04:13;7.83;;;5.47;;
17528;SDS011;8882;53.192;8.184;2022-10-23T09:12:19;8.53;;;5.47;;
17528;SDS011;8882;53.192;8.184;2022-10-23T09:15:46;8.90;;;5.57;;
17528;SDS011;8882;53.192;8.184;2022-10-23T09:17:41;8.87;;;5.73;;
17528;SDS011;8882;53.192;8.184;2022-10-23T09:20:18;9.47;;;5.57;;
17528;SDS011;8882;53.192;8.184;2022-10-23T09:22:48;9.37;;;5.60;;
17528;SDS011;8882;53.192;8.184;2022-10-23T09:25:38;7.67;;;5.70;;
17528;SDS011;8882;53.192;8.184;2022-10-23T09:28:05;10.13;;;5.80;;
17528;SDS011;8882;53.192;8.184;2022-10-23T09:30:37;7.30;;;5.50;;
17528;SDS011;8882;53.192;8.184;2022-10-23T09:33:24;9.17;;;5.27;;
17528;SDS011;8882;53.192;8.184;2022-10-23T09:40:57;10.27;;;5.73;;
17528;SDS011;8882;53.192;8.184;2022-10-23T09:43:26;7.03;;;5.63;;
17528;SDS011;8882;53.192;8.184;2022-10-23T09:46:03;9.00;;;5.40;;
17528;SDS011;8882;53.192;8.184;2022-10-23T09:48:30;8.50;;;5.23;;
17528;SDS011;8882;53.192;8.184;2022-10-23T09:50:57;8.03;;;4.93;;
17528;SDS011;8882;53.192;8.184;2022-10-23T09:53:32;8.67;;;4.63;;
17528;SDS011;8882;53.192;8.184;2022-10-23T09:56:06;7.20;;;4.80;;
17528;SDS011;8882;53.192;8.184;2022-10-23T09:59:23;6.83;;;4.87;;
17528;SDS011;8882;53.192;8.184;2022-10-23T10:01:46;11.03;;;5.10;;
17528;SDS011;8882;53.192;8.184;2022-10-23T10:04:17;7.50;;;4.47;;
17528;SDS011;8882;53.192;8.184;2022-10-23T10:06:42;8.30;;;5.50;;
17528;SDS011;8882;53.192;8.184;2022-10-23T10:09:13;10.57;;;6.90;;
17528;SDS011;8882;53.192;8.184;2022-10-23T10:11:43;8.80;;;5.63;;
17528;SDS011;8882;53.192;8.184;2022-10-23T10:17:00;6.60;;;4.03;;
17528;SDS011;8882;53.192;8.184;2022-10-23T10:19:34;8.93;;;4.40;;
17528;SDS011;8882;53.192;8.184;2022-10-23T10:22:32;7.77;;;4.93;;
17528;SDS011;8882;53.192;8.184;2022-10-23T10:25:25;6.50;;;4.60;;
17528;SDS011;8882;53.192;8.184;2022-10-23T10:33:53;7.90;;;4.03;;
17528;SDS011;8882;53.192;8.184;2022-10-23T10:39:48;7.17;;;4.30;;
17528;SDS011;8882;53.192;8.184;2022-10-23T10:45:29;6.87;;;4.17;;
17528;SDS011;8882;53.192;8.184;2022-10-23T10:48:25;8.23;;;4.57;;
17528;SDS011;8882;53.192;8.184;2022-10-23T10:50:56;7.60;;;4.93;;
17528;SDS011;8882;53.192;8.184;2022-10-23T10:56:11;6.30;;;4.80;;
17528;SDS011;8882;53.192;8.184;2022-10-23T11:01:27;6.20;;;4.27;;
17528;SDS011;8882;53.192;8.184;2022-10-23T11:04:05;4.87;;;3.90;;
17528;SDS011;8882;53.192;8.184;2022-10-23T11:06:47;4.63;;;3.60;;
17528;SDS011;8882;53.192;8.184;2022-10-23T11:09:18;7.83;;;5.03;;
17528;SDS011;8882;53.192;8.184;2022-10-23T11:11:45;10.37;;;4.67;;
17528;SDS011;8882;53.192;8.184;2022-10-23T11:14:16;6.00;;;4.13;;
17528;SDS011;8882;53.192;8.184;2022-10-23T11:16:48;7.87;;;4.07;;
17528;SDS011;8882;53.192;8.184;2022-10-23T11:19:41;7.27;;;4.07;;
17528;SDS011;8882;53.192;8.184;2022-10-23T11:33:04;7.20;;;4.43;;
17528;SDS011;8882;53.192;8.184;2022-10-23T11:36:03;4.60;;;3.90;;
17528;SDS011;8882;53.192;8.184;2022-10-23T11:38:34;5.70;;;4.17;;
17528;SDS011;8882;53.192;8.184;2022-10-23T11:41:03;6.87;;;3.70;;
17528;SDS011;8882;53.192;8.184;2022-10-23T11:43:47;6.77;;;3.40;;
17528;SDS011;8882;53.192;8.184;2022-10-23T11:48:49;7.57;;;3.63;;
17528;SDS011;8882;53.192;8.184;2022-10-23T11:59:41;5.57;;;3.30;;
17528;SDS011;8882;53.192;8.184;2022-10-23T12:05:03;5.83;;;3.60;;
17528;SDS011;8882;53.192;8.184;2022-10-23T12:07:51;4.53;;;3.30;;
17528;SDS011;8882;53.192;8.184;2022-10-23T12:10:22;4.73;;;3.03;;
17528;SDS011;8882;53.192;8.184;2022-10-23T12:12:58;5.30;;;3.77;;
17528;SDS011;8882;53.192;8.184;2022-10-23T12:15:25;4.20;;;3.47;;
17528;SDS011;8882;53.192;8.184;2022-10-23T12:17:53;6.70;;;3.50;;
17528;SDS011;8882;53.192;8.184;2022-10-23T12:20:26;5.13;;;3.20;;
17528;SDS011;8882;53.192;8.184;2022-10-23T12:25:44;6.00;;;3.10;;
17528;SDS011;8882;53.192;8.184;2022-10-23T12:28:47;5.07;;;3.43;;
17528;SDS011;8882;53.192;8.184;2022-10-23T12:31:43;5.20;;;3.23;;
17528;SDS011;8882;53.192;8.184;2022-10-23T12:34:35;4.47;;;3.10;;
17528;SDS011;8882;53.192;8.184;2022-10-23T12:40:09;3.00;;;2.53;;
17528;SDS011;8882;53.192;8.184;2022-10-23T12:42:36;5.30;;;2.90;;
17528;SDS011;8882;53.192;8.184;2022-10-23T12:45:03;5.70;;;3.57;;
17528;SDS011;8882;53.192;8.184;2022-10-23T12:47:39;5.00;;;2.90;;
17528;SDS011;8882;53.192;8.184;2022-10-23T12:53:13;4.33;;;2.90;;
17528;SDS011;8882;53.192;8.184;2022-10-23T12:55:47;5.93;;;3.33;;
17528;SDS011;8882;53.192;8.184;2022-10-23T12:58:21;3.00;;;2.57;;
17528;SDS011;8882;53.192;8.184;2022-10-23T13:00:55;3.67;;;3.23;;
17528;SDS011;8882;53.192;8.184;2022-10-23T13:03:23;4.83;;;2.50;;
17528;SDS011;8882;53.192;8.184;2022-10-23T13:05:50;5.40;;;3.00;;
17528;SDS011;8882;53.192;8.184;2022-10-23T13:08:19;4.00;;;3.10;;
17528;SDS011;8882;53.192;8.184;2022-10-23T13:10:47;3.60;;;2.73;;
17528;SDS011;8882;53.192;8.184;2022-10-23T13:13:13;5.50;;;2.97;;
17528;SDS011;8882;53.192;8.184;2022-10-23T13:15:45;7.37;;;2.80;;
17528;SDS011;8882;53.192;8.184;2022-10-23T13:18:12;3.77;;;2.57;;
17528;SDS011;8882;53.192;8.184;2022-10-23T13:20:57;6.90;;;2.63;;
17528;SDS011;8882;53.192;8.184;2022-10-23T13:23:30;6.10;;;3.23;;
17528;SDS011;8882;53.192;8.184;2022-10-23T13:26:19;7.03;;;3.47;;
17528;SDS011;8882;53.192;8.184;2022-10-23T13:28:52;5.80;;;3.07;;
17528;SDS011;8882;53.192;8.184;2022-10-23T13:36:24;3.33;;;2.37;;
17528;SDS011;8882;53.192;8.184;2022-10-23T13:41:23;5.20;;;3.07;;
17528;SDS011;8882;53.192;8.184;2022-10-23T13:43:49;4.37;;;2.90;;
17528;SDS011;8882;53.192;8.184;2022-10-23T13:46:15;5.60;;;2.67;;
17528;SDS011;8882;53.192;8.184;2022-10-23T13:48:45;5.50;;;3.10;;
17528;SDS011;8882;53.192;8.184;2022-10-23T13:51:12;3.23;;;2.57;;
17528;SDS011;8882;53.192;8.184;2022-10-23T13:53:52;7.33;;;2.97;;
17528;SDS011;8882;53.192;8.184;2022-10-23T13:56:19;4.03;;;2.77;;
17528;SDS011;8882;53.192;8.184;2022-10-23T13:58:46;4.70;;;3.07;;
17528;SDS011;8882;53.192;8.184;2022-10-23T14:01:17;4.67;;;2.77;;
17528;SDS011;8882;53.192;8.184;2022-10-23T14:03:44;5.30;;;2.77;;
17528;SDS011;8882;53.192;8.184;2022-10-23T14:06:11;3.80;;;2.53;;
17528;SDS011;8882;53.192;8.184;2022-10-23T14:08:36;4.37;;;2.67;;
17528;SDS011;8882;53.192;8.184;2022-10-23T14:11:02;4.03;;;2.43;;
17528;SDS011;8882;53.192;8.184;2022-10-23T14:13:27;3.73;;;2.77;;
17528;SDS011;8882;53.192;8.184;2022-10-23T14:15:53;7.23;;;2.90;;
17528;SDS011;8882;53.192;8.184;2022-10-23T14:18:19;3.73;;;2.43;;
17528;SDS011;8882;53.192;8.184;2022-10-23T14:20:45;4.23;;;2.97;;
17528;SDS011;8882;53.192;8.184;2022-10-23T14:23:11;2.80;;;2.60;;
17528;SDS011;8882;53.192;8.184;2022-10-23T14:25:37;6.47;;;3.03;;
17528;SDS011;8882;53.192;8.184;2022-10-23T14:28:03;4.40;;;3.33;;
17528;SDS011;8882;53.192;8.184;2022-10-23T14:30:28;5.57;;;2.80;;
17528;SDS011;8882;53.192;8.184;2022-10-23T14:32:54;4.47;;;2.40;;
17528;SDS011;8882;53.192;8.184;2022-10-23T14:35:20;6.10;;;2.70;;
17528;SDS011;8882;53.192;8.184;2022-10-23T14:37:45;3.00;;;2.53;;
17528;SDS011;8882;53.192;8.184;2022-10-23T14:40:11;3.23;;;2.30;;
17528;SDS011;8882;53.192;8.184;2022-10-23T14:42:36;4.23;;;2.63;;
17528;SDS011;8882;53.192;8.184;2022-10-23T14:45:02;2.87;;;2.40;;
17528;SDS011;8882;53.192;8.184;2022-10-23T14:47:28;4.33;;;2.80;;
17528;SDS011;8882;53.192;8.184;2022-10-23T14:49:53;4.37;;;2.37;;
17528;SDS011;8882;53.192;8.184;2022-10-23T14:52:20;8.50;;;2.97;;
17528;SDS011;8882;53.192;8.184;2022-10-23T14:54:45;4.93;;;2.30;;
17528;SDS011;8882;53.192;8.184;2022-10-23T14:57:11;6.13;;;2.57;;
17528;SDS011;8882;53.192;8.184;2022-10-23T14:59:40;3.07;;;2.53;;
17528;SDS011;8882;53.192;8.184;2022-10-23T15:02:05;4.37;;;2.40;;
17528;SDS011;8882;53.192;8.184;2022-10-23T15:04:33;6.97;;;2.70;;
17528;SDS011;8882;53.192;8.184;2022-10-23T15:06:58;5.83;;;2.97;;
17528;SDS011;8882;53.192;8.184;2022-10-23T15:09:24;5.97;;;2.60;;
17528;SDS011;8882;53.192;8.184;2022-10-23T15:11:49;4.87;;;3.10;;
17528;SDS011;8882;53.192;8.184;2022-10-23T15:14:15;3.70;;;2.87;;
17528;SDS011;8882;53.192;8.184;2022-10-23T15:16:41;5.17;;;2.40;;
17528;SDS011;8882;53.192;8.184;2022-10-23T15:19:07;3.57;;;2.50;;
17528;SDS011;8882;53.192;8.184;2022-10-23T15:21:34;4.67;;;2.60;;
17528;SDS011;8882;53.192;8.184;2022-10-23T15:23:59;4.67;;;2.73;;
17528;SDS011;8882;53.192;8.184;2022-10-23T15:26:26;6.07;;;2.67;;
17528;SDS011;8882;53.192;8.184;2022-10-23T15:28:52;7.07;;;5.03;;
17528;SDS011;8882;53.192;8.184;2022-10-23T15:33:53;5.37;;;2.93;;
17528;SDS011;8882;53.192;8.184;2022-10-23T15:36:22;4.17;;;2.90;;
17528;SDS011;8882;53.192;8.184;2022-10-23T15:38:48;4.70;;;3.00;;
17528;SDS011;8882;53.192;8.184;2022-10-23T15:41:14;3.10;;;2.57;;
17528;SDS011;8882;53.192;8.184;2022-10-23T15:43:41;4.90;;;3.30;;
17528;SDS011;8882;53.192;8.184;2022-10-23T15:46:07;6.20;;;4.20;;
17528;SDS011;8882;53.192;8.184;2022-10-23T15:48:32;2.23;;;2.03;;
17528;SDS011;8882;53.192;8.184;2022-10-23T15:50:58;3.90;;;2.43;;
17528;SDS011;8882;53.192;8.184;2022-10-23T15:53:24;4.13;;;3.00;;
17528;SDS011;8882;53.192;8.184;2022-10-23T15:55:49;2.63;;;2.27;;
17528;SDS011;8882;53.192;8.184;2022-10-23T15:58:15;4.10;;;2.27;;
17528;SDS011;8882;53.192;8.184;2022-10-23T16:00:41;6.30;;;3.27;;
17528;SDS011;8882;53.192;8.184;2022-10-23T16:03:06;5.67;;;3.70;;
17528;SDS011;8882;53.192;8.184;2022-10-23T16:05:32;4.83;;;2.97;;
17528;SDS011;8882;53.192;8.184;2022-10-23T16:07:57;5.60;;;2.87;;
17528;SDS011;8882;53.192;8.184;2022-10-23T16:10:23;4.60;;;3.10;;
17528;SDS011;8882;53.192;8.184;2022-10-23T16:12:48;4.33;;;2.63;;
17528;SDS011;8882;53.192;8.184;2022-10-23T16:15:14;5.63;;;3.90;;
17528;SDS011;8882;53.192;8.184;2022-10-23T16:17:40;3.27;;;2.97;;
17528;SDS011;8882;53.192;8.184;2022-10-23T16:20:06;4.13;;;3.07;;
17528;SDS011;8882;53.192;8.184;2022-10-23T16:22:32;3.83;;;2.50;;
17528;SDS011;8882;53.192;8.184;2022-10-23T16:24:57;4.77;;;2.60;;
17528;SDS011;8882;53.192;8.184;2022-10-23T16:27:23;5.77;;;3.50;;
17528;SDS011;8882;53.192;8.184;2022-10-23T16:29:48;5.80;;;3.73;;
17528;SDS011;8882;53.192;8.184;2022-10-23T16:32:14;3.93;;;2.80;;
17528;SDS011;8882;53.192;8.184;2022-10-23T16:34:39;3.83;;;2.90;;
17528;SDS011;8882;53.192;8.184;2022-10-23T16:37:05;5.37;;;3.20;;
17528;SDS011;8882;53.192;8.184;2022-10-23T16:39:30;6.33;;;2.97;;
17528;SDS011;8882;53.192;8.184;2022-10-23T16:41:56;3.50;;;2.37;;
17528;SDS011;8882;53.192;8.184;2022-10-23T16:44:22;3.03;;;2.17;;
17528;SDS011;8882;53.192;8.184;2022-10-23T16:46:47;2.77;;;2.47;;
17528;SDS011;8882;53.192;8.184;2022-10-23T16:49:13;3.87;;;2.50;;
17528;SDS011;8882;53.192;8.184;2022-10-23T16:51:38;4.83;;;2.40;;
17528;SDS011;8882;53.192;8.184;2022-10-23T16:54:04;2.63;;;2.43;;
17528;SDS011;8882;53.192;8.184;2022-10-23T16:56:30;2.30;;;2.10;;
17528;SDS011;8882;53.192;8.184;2022-10-23T16:58:56;4.93;;;2.20;;
17528;SDS011;8882;53.192;8.184;2022-10-23T17:01:23;3.47;;;2.23;;
17528;SDS011;8882;53.192;8.184;2022-10-23T17:03:54;3.30;;;2.20;;
17528;SDS011;8882;53.192;8.184;2022-10-23T17:06:21;6.00;;;2.30;;
17528;SDS011;8882;53.192;8.184;2022-10-23T17:08:48;4.43;;;2.10;;
17528;SDS011;8882;53.192;8.184;2022-10-23T17:11:18;4.03;;;2.50;;
17528;SDS011;8882;53.192;8.184;2022-10-23T17:13:47;5.00;;;3.10;;
17528;SDS011;8882;53.192;8.184;2022-10-23T17:16:35;4.47;;;3.03;;
17528;SDS011;8882;53.192;8.184;2022-10-23T17:19:03;6.20;;;2.77;;
17528;SDS011;8882;53.192;8.184;2022-10-23T17:21:30;3.67;;;2.30;;
17528;SDS011;8882;53.192;8.184;2022-10-23T17:23:58;2.70;;;2.33;;
17528;SDS011;8882;53.192;8.184;2022-10-23T17:26:23;3.90;;;2.90;;
17528;SDS011;8882;53.192;8.184;2022-10-23T17:28:49;6.33;;;3.10;;
17528;SDS011;8882;53.192;8.184;2022-10-23T17:31:19;4.20;;;2.53;;
17528;SDS011;8882;53.192;8.184;2022-10-23T17:33:50;7.47;;;2.80;;
17528;SDS011;8882;53.192;8.184;2022-10-23T17:36:18;2.53;;;2.10;;
17528;SDS011;8882;53.192;8.184;2022-10-23T17:38:45;3.60;;;2.50;;
17528;SDS011;8882;53.192;8.184;2022-10-23T17:41:11;3.87;;;2.20;;
17528;SDS011;8882;53.192;8.184;2022-10-23T17:43:39;3.87;;;2.17;;
17528;SDS011;8882;53.192;8.184;2022-10-23T17:46:05;6.97;;;2.20;;
17528;SDS011;8882;53.192;8.184;2022-10-23T17:48:32;3.27;;;2.20;;
17528;SDS011;8882;53.192;8.184;2022-10-23T17:51:00;5.43;;;2.30;;
17528;SDS011;8882;53.192;8.184;2022-10-23T17:53:26;3.47;;;1.90;;
17528;SDS011;8882;53.192;8.184;2022-10-23T17:55:52;5.53;;;3.20;;
17528;SDS011;8882;53.192;8.184;2022-10-23T17:58:18;3.30;;;2.57;;
17528;SDS011;8882;53.192;8.184;2022-10-23T18:00:43;4.07;;;2.53;;
17528;SDS011;8882;53.192;8.184;2022-10-23T18:03:09;6.80;;;3.17;;
17528;SDS011;8882;53.192;8.184;2022-10-23T18:05:34;2.47;;;2.27;;
17528;SDS011;8882;53.192;8.184;2022-10-23T18:07:59;2.60;;;2.27;;
17528;SDS011;8882;53.192;8.184;2022-10-23T18:10:25;2.33;;;2.07;;
17528;SDS011;8882;53.192;8.184;2022-10-23T18:12:51;2.97;;;2.10;;
17528;SDS011;8882;53.192;8.184;2022-10-23T18:15:17;4.67;;;2.50;;
17528;SDS011;8882;53.192;8.184;2022-10-23T18:17:43;3.17;;;1.97;;
17528;SDS011;8882;53.192;8.184;2022-10-23T18:20:08;4.63;;;2.07;;
17528;SDS011;8882;53.192;8.184;2022-10-23T18:22:35;1.83;;;1.70;;
17528;SDS011;8882;53.192;8.184;2022-10-23T18:25:02;2.07;;;1.83;;
17528;SDS011;8882;53.192;8.184;2022-10-23T18:27:28;1.93;;;1.70;;
17528;SDS011;8882;53.192;8.184;2022-10-23T18:29:54;2.17;;;1.93;;
17528;SDS011;8882;53.192;8.184;2022-10-23T18:32:19;2.97;;;1.63;;
17528;SDS011;8882;53.192;8.184;2022-10-23T18:34:46;2.13;;;1.93;;
17528;SDS011;8882;53.192;8.184;2022-10-23T18:37:11;3.70;;;2.00;;
17528;SDS011;8882;53.192;8.184;2022-10-23T18:39:37;3.50;;;1.60;;
17528;SDS011;8882;53.192;8.184;2022-10-23T18:42:02;2.53;;;1.50;;
17528;SDS011;8882;53.192;8.184;2022-10-23T18:44:28;2.33;;;1.80;;
17528;SDS011;8882;53.192;8.184;2022-10-23T18:46:55;3.70;;;2.00;;
17528;SDS011;8882;53.192;8.184;2022-10-23T18:49:21;2.27;;;1.83;;
17528;SDS011;8882;53.192;8.184;2022-10-23T18:51:47;1.73;;;1.43;;
17528;SDS011;8882;53.192;8.184;2022-10-23T18:54:16;1.57;;;1.37;;
17528;SDS011;8882;53.192;8.184;2022-10-23T18:56:44;3.83;;;1.80;;
17528;SDS011;8882;53.192;8.184;2022-10-23T18:59:10;2.40;;;2.20;;
17528;SDS011;8882;53.192;8.184;2022-10-23T19:01:38;1.50;;;1.40;;
17528;SDS011;8882;53.192;8.184;2022-10-23T19:04:04;3.50;;;1.87;;
17528;SDS011;8882;53.192;8.184;2022-10-23T19:06:30;5.17;;;1.90;;
17528;SDS011;8882;53.192;8.184;2022-10-23T19:08:57;2.10;;;1.50;;
17528;SDS011;8882;53.192;8.184;2022-10-23T19:11:24;4.63;;;1.90;;
17528;SDS011;8882;53.192;8.184;2022-10-23T19:13:50;1.60;;;1.50;;
17528;SDS011;8882;53.192;8.184;2022-10-23T19:16:26;2.37;;;1.87;;
17528;SDS011;8882;53.192;8.184;2022-10-23T19:18:58;4.57;;;2.00;;
17528;SDS011;8882;53.192;8.184;2022-10-23T19:21:29;2.67;;;1.87;;
17528;SDS011;8882;53.192;8.184;2022-10-23T19:24:02;1.60;;;1.50;;
17528;SDS011;8882;53.192;8.184;2022-10-23T19:26:31;1.97;;;1.70;;
17528;SDS011;8882;53.192;8.184;2022-10-23T19:28:59;6.60;;;1.97;;
17528;SDS011;8882;53.192;8.184;2022-10-23T19:31:25;4.23;;;2.00;;
17528;SDS011;8882;53.192;8.184;2022-10-23T19:33:51;2.53;;;1.90;;
17528;SDS011;8882;53.192;8.184;2022-10-23T19:36:17;3.93;;;1.80;;
17528;SDS011;8882;53.192;8.184;2022-10-23T19:38:43;5.40;;;2.33;;
17528;SDS011;8882;53.192;8.184;2022-10-23T19:41:08;2.43;;;1.67;;
17528;SDS011;8882;53.192;8.184;2022-10-23T19:43:34;2.83;;;2.17;;
17528;SDS011;8882;53.192;8.184;2022-10-23T19:46:02;2.37;;;1.83;;
17528;SDS011;8882;53.192;8.184;2022-10-23T19:48:29;4.03;;;2.07;;
17528;SDS011;8882;53.192;8.184;2022-10-23T19:50:55;4.60;;;2.13;;
17528;SDS011;8882;53.192;8.184;2022-10-23T19:53:21;6.43;;;2.60;;
17528;SDS011;8882;53.192;8.184;2022-10-23T19:55:46;2.60;;;2.07;;
17528;SDS011;8882;53.192;8.184;2022-10-23T19:58:12;6.10;;;2.20;;
17528;SDS011;8882;53.192;8.184;2022-10-23T20:00:37;1.83;;;1.43;;
17528;SDS011;8882;53.192;8.184;2022-10-23T20:03:03;5.90;;;1.77;;
17528;SDS011;8882;53.192;8.184;2022-10-23T20:05:29;3.53;;;2.07;;
17528;SDS011;8882;53.192;8.184;2022-10-23T20:07:55;5.93;;;3.83;;
17528;SDS011;8882;53.192;8.184;2022-10-23T20:10:21;6.73;;;3.37;;
17528;SDS011;8882;53.192;8.184;2022-10-23T20:12:46;3.50;;;2.33;;
17528;SDS011;8882;53.192;8.184;2022-10-23T20:15:12;3.83;;;1.60;;
17528;SDS011;8882;53.192;8.184;2022-10-23T20:17:37;2.13;;;1.87;;
17528;SDS011;8882;53.192;8.184;2022-10-23T20:20:04;3.10;;;2.20;;
17528;SDS011;8882;53.192;8.184;2022-10-23T20:22:30;1.80;;;1.40;;
17528;SDS011;8882;53.192;8.184;2022-10-23T20:24:55;2.20;;;2.00;;
17528;SDS011;8882;53.192;8.184;2022-10-23T20:27:21;2.37;;;1.90;;
17528;SDS011;8882;53.192;8.184;2022-10-23T20:29:46;2.80;;;1.80;;
17528;SDS011;8882;53.192;8.184;2022-10-23T20:32:12;4.03;;;1.93;;
17528;SDS011;8882;53.192;8.184;2022-10-23T20:34:39;2.00;;;1.50;;
17528;SDS011;8882;53.192;8.184;2022-10-23T20:37:05;2.97;;;1.70;;
17528;SDS011;8882;53.192;8.184;2022-10-23T20:39:31;1.93;;;1.50;;
17528;SDS011;8882;53.192;8.184;2022-10-23T20:41:59;3.40;;;1.60;;
17528;SDS011;8882;53.192;8.184;2022-10-23T20:44:26;3.40;;;1.70;;
17528;SDS011;8882;53.192;8.184;2022-10-23T20:46:52;5.57;;;1.37;;
17528;SDS011;8882;53.192;8.184;2022-10-23T20:49:18;1.50;;;1.30;;
17528;SDS011;8882;53.192;8.184;2022-10-23T20:51:44;3.00;;;1.60;;
17528;SDS011;8882;53.192;8.184;2022-10-23T20:54:13;1.93;;;1.27;;
17528;SDS011;8882;53.192;8.184;2022-10-23T20:56:39;1.53;;;1.43;;
17528;SDS011;8882;53.192;8.184;2022-10-23T20:59:06;1.50;;;1.40;;
